Time;durP1;ratioP1;P1;durP2;ratioP2;P2;SDS_P1;SDS_P2;PMS_P1;PMS_P2;Temp;Humidity;BMP_temperature;BMP_pressure;BME280_temperature;BME280_humidity;BME280_pressure;Samples;Min_cycle;Max_cycle;Signal;HPM_P1;HPM_P2
2022/08/30 00:04:44;;;;;;;0.20;0.00;;;24.70;99.90;;;;;;26171464;22;20184;-72
2022/08/30 00:14:48;;;;;;;0.20;0.00;;;24.50;99.90;;;;;;26172754;22;20332;-72
2022/08/30 00:24:53;;;;;;;0.20;0.00;;;24.40;99.90;;;;;;26170294;22;20163;-71
2022/08/30 00:34:57;;;;;;;0.20;0.00;;;24.70;99.90;;;;;;26172356;22;20217;-71
2022/08/30 00:45:14;;;;;;;0.20;0.00;;;24.90;99.90;;;;;;26170625;22;20163;-71
2022/08/30 00:55:19;;;;;;;0.20;0.10;;;24.80;99.90;;;;;;26169661;22;20209;-71
2022/08/30 01:05:25;;;;;;;0.20;0.00;;;24.50;99.90;;;;;;26146380;22;20188;-70
2022/08/30 01:15:31;;;;;;;0.20;0.00;;;24.70;99.90;;;;;;26178040;22;20265;-71
2022/08/30 01:25:41;;;;;;;0.20;0.00;;;24.30;99.90;;;;;;26178787;22;20160;-70
2022/08/30 01:35:52;;;;;;;0.20;0.00;;;24.20;99.90;;;;;;26178389;22;20183;-71
2022/08/30 01:45:57;;;;;;;0.20;0.00;;;24.40;99.90;;;;;;26148422;22;20179;-71
2022/08/30 01:56:01;;;;;;;0.20;0.10;;;24.50;99.90;;;;;;26149085;22;20202;-71
2022/08/30 02:06:08;;;;;;;0.20;0.00;;;24.50;99.90;;;;;;26149800;22;20184;-71
2022/08/30 02:16:14;;;;;;;0.20;0.00;;;24.50;99.90;;;;;;26149763;22;20188;-70
2022/08/30 02:26:20;;;;;;;0.20;0.00;;;24.60;99.90;;;;;;26176540;22;20171;-70
2022/08/30 02:36:24;;;;;;;0.20;0.10;;;24.60;99.90;;;;;;26174664;22;20182;-70
2022/08/30 02:46:29;;;;;;;0.20;0.00;;;24.50;99.90;;;;;;26176039;22;20163;-70
2022/08/30 02:56:37;;;;;;;0.20;0.00;;;24.50;99.90;;;;;;26145913;22;20295;-71
2022/08/30 03:06:42;;;;;;;0.20;0.00;;;24.50;99.90;;;;;;26175337;22;20183;-71
2022/08/30 03:16:46;;;;;;;0.20;0.00;;;24.40;99.90;;;;;;26145372;22;20278;-69
2022/08/30 03:26:52;;;;;;;0.20;0.00;;;24.40;99.90;;;;;;26174248;22;20168;-70
2022/08/30 03:36:57;;;;;;;0.20;0.00;;;24.30;99.90;;;;;;26172977;22;20191;-70
2022/08/30 03:47:02;;;;;;;0.20;0.10;;;24.30;99.90;;;;;;26171276;22;20159;-71
2022/08/30 03:57:06;;;;;;;0.20;0.00;;;24.20;99.90;;;;;;26170469;22;20195;-70
2022/08/30 04:07:18;;;;;;;0.20;0.00;;;24.10;99.90;;;;;;26170977;22;20187;-71
2022/08/30 04:17:21;;;;;;;0.20;0.00;;;24.10;99.90;;;;;;26145320;22;20195;-70
2022/08/30 04:27:26;;;;;;;0.20;0.00;;;24.10;99.90;;;;;;26170944;22;20167;-71
2022/08/30 04:37:30;;;;;;;0.20;0.00;;;24.00;99.90;;;;;;26169378;22;20187;-69
2022/08/30 04:47:37;;;;;;;0.20;0.00;;;24.00;99.90;;;;;;26176642;22;20171;-69
2022/08/30 04:57:42;;;;;;;0.20;0.00;;;24.30;99.90;;;;;;26149726;22;20195;-69
2022/08/30 05:07:47;;;;;;;0.20;0.00;;;24.40;99.90;;;;;;26177854;22;20183;-70
2022/08/30 05:17:50;;;;;;;0.20;0.00;;;24.40;99.90;;;;;;26150665;22;20191;-69
2022/08/30 05:27:56;;;;;;;0.20;0.00;;;24.30;99.90;;;;;;26176412;22;20164;-70
2022/08/30 05:38:00;;;;;;;0.20;0.00;;;24.20;99.90;;;;;;26148740;22;20184;-70
2022/08/30 05:48:06;;;;;;;0.20;0.00;;;24.20;99.90;;;;;;26146950;22;20211;-71
2022/08/30 05:58:10;;;;;;;0.20;0.00;;;24.10;99.90;;;;;;26172487;22;20210;-70
2022/08/30 06:08:15;;;;;;;0.20;0.00;;;24.30;99.90;;;;;;26147956;22;20592;-69
2022/08/30 06:18:19;;;;;;;0.20;0.00;;;24.50;99.90;;;;;;26172407;22;20183;-70
2022/08/30 06:28:32;;;;;;;0.20;0.08;;;24.70;99.90;;;;;;26173341;22;20167;-71
2022/08/30 06:38:36;;;;;;;0.20;0.00;;;25.10;99.90;;;;;;26171528;22;20199;-71
2022/08/30 06:48:42;;;;;;;0.20;0.00;;;25.60;99.90;;;;;;26171960;22;20175;-71
2022/08/30 06:58:51;;;;;;;0.20;0.00;;;25.90;99.90;;;;;;26145082;22;20195;-70
2022/08/30 07:08:57;;;;;;;0.20;0.00;;;26.40;99.90;;;;;;26168403;22;20179;-69
2022/08/30 07:19:01;;;;;;;0.20;0.00;;;27.00;99.90;;;;;;26170620;22;20190;-71
2022/08/30 07:29:07;;;;;;;0.20;0.00;;;27.30;99.90;;;;;;26144654;22;20171;-68
2022/08/30 07:39:11;;;;;;;0.20;0.00;;;27.90;99.90;;;;;;26142636;22;20183;-70
2022/08/30 07:49:16;;;;;;;0.20;0.00;;;27.90;99.90;;;;;;26167052;22;20159;-70
2022/08/30 07:59:20;;;;;;;0.20;0.00;;;27.80;99.90;;;;;;26166527;22;20210;-68
2022/08/30 08:09:25;;;;;;;0.20;0.00;;;28.00;99.90;;;;;;26167635;22;20194;-71
2022/08/30 08:19:29;;;;;;;0.20;0.00;;;28.20;99.90;;;;;;26167454;22;20226;-70
2022/08/30 08:29:35;;;;;;;0.20;0.00;;;28.70;99.90;;;;;;26169029;22;20235;-70
2022/08/30 08:39:39;;;;;;;0.20;0.00;;;28.90;99.90;;;;;;26139968;22;20217;-69
2022/08/30 08:49:47;;;;;;;0.20;0.00;;;29.30;99.90;;;;;;26140267;22;20238;-69
2022/08/30 08:59:53;;;;;;;0.20;0.00;;;29.20;99.90;;;;;;26138635;22;20191;-69
2022/08/30 09:10:00;;;;;;;0.20;0.03;;;29.50;99.90;;;;;;26138784;22;20184;-70
2022/08/30 09:20:04;;;;;;;0.20;0.00;;;29.50;99.90;;;;;;26138409;22;20175;-70
2022/08/30 09:30:15;;;;;;;0.20;0.05;;;29.30;99.90;;;;;;26141513;22;20170;-70
2022/08/30 09:40:26;;;;;;;0.20;0.00;;;29.20;99.90;;;;;;26174723;22;20179;-69
2022/08/30 09:50:35;;;;;;;0.20;0.00;;;29.60;99.90;;;;;;26145858;22;20173;-72
2022/08/30 10:00:46;;;;;;;0.20;0.00;;;29.90;99.90;;;;;;26170680;22;20203;-69
2022/08/30 10:11:00;;;;;;;0.20;0.00;;;29.80;99.90;;;;;;26171068;22;20179;-70
2022/08/30 10:21:10;;;;;;;0.20;0.00;;;29.80;99.90;;;;;;26172262;22;20242;-70
2022/08/30 10:31:27;;;;;;;0.20;0.00;;;30.50;99.90;;;;;;26144279;22;20163;-66
2022/08/30 10:41:37;;;;;;;0.20;0.00;;;31.00;99.90;;;;;;26169265;22;20198;-71
2022/08/30 10:51:51;;;;;;;0.20;0.00;;;31.20;99.90;;;;;;26141782;22;20171;-70
2022/08/30 11:02:14;;;;;;;0.20;0.00;;;31.30;99.90;;;;;;26171780;22;20195;-70
2022/08/30 11:12:33;;;;;;;0.20;0.00;;;31.80;99.90;;;;;;26140786;22;20183;-70
2022/08/30 11:22:38;;;;;;;0.20;0.00;;;31.60;99.90;;;;;;26139399;22;20251;-71
2022/08/30 11:32:59;;;;;;;0.20;0.00;;;31.80;99.90;;;;;;26166761;22;20164;-72
2022/08/30 11:43:54;;;;;;;0.20;0.00;;;32.50;99.90;;;;;;26140580;22;20183;-70
2022/08/30 11:54:08;;;;;;;0.20;0.00;;;33.30;99.90;;;;;;26166445;22;20179;-70
2022/08/30 12:04:28;;;;;;;0.20;0.00;;;33.50;99.90;;;;;;26169207;22;20245;-70
2022/08/30 12:14:50;;;;;;;0.20;0.00;;;33.30;99.90;;;;;;26168418;22;20187;-71
2022/08/30 12:24:55;;;;;;;0.20;0.00;;;34.30;99.90;;;;;;26137687;22;20175;-71
2022/08/30 12:35:03;;;;;;;0.20;0.00;;;33.90;99.90;;;;;;26140989;22;20179;-71
2022/08/30 12:45:11;;;;;;;0.20;0.00;;;34.40;99.90;;;;;;26166662;22;20168;-70
2022/08/30 12:55:20;;;;;;;0.20;0.00;;;35.10;99.90;;;;;;26167669;22;20195;-70
2022/08/30 13:05:34;;;;;;;0.20;0.00;;;36.70;99.90;;;;;;26171374;22;20185;-71
2022/08/30 13:15:49;;;;;;;0.20;0.00;;;36.30;99.90;;;;;;26175986;22;20536;-71
2022/08/30 13:25:55;;;;;;;0.20;0.00;;;36.70;99.90;;;;;;26173916;22;20159;-67
2022/08/30 13:36:01;;;;;;;0.20;0.00;;;35.10;99.90;;;;;;26174534;22;20183;-70
2022/08/30 13:46:05;;;;;;;0.20;0.00;;;36.20;99.90;;;;;;26144974;22;20167;-70
2022/08/30 13:56:11;;;;;;;0.20;0.00;;;34.90;99.90;;;;;;26174681;22;20210;-71
2022/08/30 14:06:16;;;;;;;0.20;0.00;;;35.40;99.90;;;;;;26174061;22;20191;-70
2022/08/30 14:16:39;;;;;;;0.20;0.00;;;35.50;99.90;;;;;;26173686;22;20744;-71
2022/08/30 14:26:47;;;;;;;0.20;0.00;;;35.20;99.90;;;;;;26172221;22;20215;-70
2022/08/30 14:36:52;;;;;;;0.20;0.00;;;35.30;99.90;;;;;;26144849;22;20179;-70
2022/08/30 14:46:56;;;;;;;0.20;0.00;;;36.00;99.90;;;;;;26171394;22;20152;-71
2022/08/30 14:57:04;;;;;;;0.20;0.00;;;36.10;99.90;;;;;;26141936;22;20263;-70
2022/08/30 15:07:08;;;;;;;0.20;0.00;;;37.30;99.90;;;;;;26143292;22;20183;-70
2022/08/30 15:17:18;;;;;;;0.20;0.00;;;35.80;99.90;;;;;;26169730;22;20183;-70
2022/08/30 15:27:22;;;;;;;0.20;0.00;;;35.00;99.90;;;;;;26143437;22;20167;-69
2022/08/30 15:37:28;;;;;;;0.20;0.00;;;34.70;99.90;;;;;;26169078;22;20218;-70
2022/08/30 15:47:32;;;;;;;0.20;0.00;;;32.50;99.90;;;;;;26139726;22;20175;-70
2022/08/30 15:57:38;;;;;;;0.20;0.00;;;31.70;99.90;;;;;;26166636;22;20199;-68
2022/08/30 16:07:45;;;;;;;0.20;0.00;;;30.90;99.90;;;;;;26166056;22;20187;-70
2022/08/30 16:17:52;;;;;;;0.20;0.00;;;30.50;99.90;;;;;;26141805;22;20188;-70
2022/08/30 16:27:56;;;;;;;0.20;0.00;;;30.30;99.90;;;;;;26139458;22;20171;-70
2022/08/30 16:38:01;;;;;;;0.20;0.00;;;30.10;99.90;;;;;;26141341;22;20194;-70
2022/08/30 16:48:06;;;;;;;0.20;0.00;;;30.00;99.90;;;;;;26152204;22;20163;-70
2022/08/30 16:58:15;;;;;;;0.20;0.00;;;30.10;99.90;;;;;;26153465;22;20203;-70
2022/08/30 17:08:21;;;;;;;0.20;0.00;;;29.80;99.90;;;;;;26150831;22;20183;-68
2022/08/30 17:18:27;;;;;;;0.20;0.00;;;29.80;99.90;;;;;;26179784;22;20188;-69
2022/08/30 17:28:31;;;;;;;0.20;0.00;;;30.10;99.90;;;;;;26152299;22;20151;-69
2022/08/30 17:38:37;;;;;;;0.20;0.00;;;30.40;99.90;;;;;;26150653;22;20195;-70
2022/08/30 17:48:47;;;;;;;0.20;0.00;;;30.40;99.90;;;;;;26176858;22;20162;-70
2022/08/30 17:59:06;;;;;;;0.20;0.00;;;29.40;99.90;;;;;;26170630;22;20210;-70
2022/08/30 18:09:30;;;;;;;0.20;0.00;;;29.10;99.90;;;;;;26144099;22;20187;-70
2022/08/30 18:19:38;;;;;;;0.20;0.00;;;28.60;99.90;;;;;;26141499;22;20202;-68
2022/08/30 18:29:49;;;;;;;0.20;0.00;;;28.10;99.90;;;;;;26170049;22;20174;-69
2022/08/30 18:39:54;;;;;;;0.20;0.00;;;28.00;99.90;;;;;;26171309;22;20216;-69
2022/08/30 18:49:58;;;;;;;0.20;0.00;;;27.90;99.90;;;;;;26169931;22;20164;-70
2022/08/30 19:00:05;;;;;;;0.20;0.00;;;28.00;99.90;;;;;;26171226;22;20206;-71
2022/08/30 19:10:11;;;;;;;0.20;0.00;;;28.00;99.90;;;;;;26168885;22;20217;-70
2022/08/30 19:20:19;;;;;;;0.20;0.00;;;27.80;99.90;;;;;;26140109;22;20194;-72
2022/08/30 19:30:25;;;;;;;0.20;0.00;;;27.90;99.90;;;;;;26170388;22;20179;-69
2022/08/30 19:40:33;;;;;;;0.20;0.00;;;28.00;99.90;;;;;;26137841;22;20183;-68
2022/08/30 19:50:37;;;;;;;0.20;0.00;;;27.90;99.90;;;;;;26143714;22;20159;-69
2022/08/30 20:00:45;;;;;;;0.20;0.00;;;27.90;99.90;;;;;;26142508;22;20198;-70
2022/08/30 20:11:03;;;;;;;0.20;0.00;;;28.00;99.90;;;;;;26141594;22;20198;-69
2022/08/30 20:21:09;;;;;;;0.20;0.00;;;27.80;99.90;;;;;;26166621;22;20187;-69
2022/08/30 20:31:16;;;;;;;0.20;0.00;;;27.80;99.90;;;;;;26142366;22;20164;-69
2022/08/30 20:41:22;;;;;;;0.20;0.00;;;27.90;99.90;;;;;;26140043;22;20183;-71
2022/08/30 20:51:26;;;;;;;0.20;0.00;;;27.80;99.90;;;;;;26169443;22;20162;-70
2022/08/30 21:01:32;;;;;;;0.20;0.00;;;27.80;99.90;;;;;;26114408;22;20220;-70
2022/08/30 21:11:38;;;;;;;0.20;0.00;;;27.70;99.90;;;;;;26117645;22;20187;-70
2022/08/30 21:21:48;;;;;;;0.20;0.00;;;27.60;99.90;;;;;;26169360;22;20179;-70
2022/08/30 21:31:52;;;;;;;0.20;0.00;;;27.60;99.90;;;;;;26176092;22;20164;-70
2022/08/30 21:41:58;;;;;;;0.20;0.00;;;27.70;99.90;;;;;;26148175;22;20211;-70
2022/08/30 21:52:02;;;;;;;0.20;0.00;;;27.70;99.90;;;;;;26175621;22;20163;-68
2022/08/30 22:02:07;;;;;;;0.20;0.00;;;27.60;99.90;;;;;;26174240;22;20195;-70
2022/08/30 22:12:11;;;;;;;0.20;0.00;;;27.50;99.90;;;;;;26174429;22;20183;-69
2022/08/30 22:22:17;;;;;;;0.20;0.00;;;27.50;99.90;;;;;;26149361;22;20194;-69
2022/08/30 22:32:21;;;;;;;0.20;0.00;;;27.70;99.90;;;;;;26174733;22;20227;-70
2022/08/30 22:42:26;;;;;;;0.20;0.00;;;27.50;99.90;;;;;;26175186;22;20192;-69
2022/08/30 22:52:30;;;;;;;0.20;0.00;;;27.40;99.90;;;;;;26146735;22;20164;-70
2022/08/30 23:02:35;;;;;;;0.20;0.00;;;27.30;99.90;;;;;;26173215;22;20201;-70
2022/08/30 23:12:40;;;;;;;0.20;0.00;;;27.20;99.90;;;;;;26172569;22;20188;-71
2022/08/30 23:22:45;;;;;;;0.20;0.00;;;27.10;99.90;;;;;;26173286;22;20193;-70
